createdAt,value
2019-03-20T00:02:01.153Z,3.53
2019-03-20T00:04:30.502Z,3.58
2019-03-20T00:09:48.041Z,3.65
2019-03-20T00:12:17.306Z,3.66
2019-03-20T00:14:46.580Z,3.68
2019-03-20T00:17:15.868Z,3.68
2019-03-20T00:19:45.142Z,3.71
2019-03-20T00:22:14.430Z,3.72
2019-03-20T00:24:43.737Z,3.75
2019-03-20T00:27:13.009Z,3.78
2019-03-20T00:29:42.286Z,3.78
2019-03-20T00:32:11.574Z,3.77
2019-03-20T00:34:40.863Z,3.79
2019-03-20T00:37:10.137Z,3.81
2019-03-20T00:39:39.414Z,3.81
2019-03-20T00:42:08.680Z,3.81
2019-03-20T00:44:37.940Z,3.82
2019-03-20T00:47:07.224Z,3.83
2019-03-20T00:49:36.491Z,3.83
2019-03-20T00:54:40.643Z,3.80
2019-03-20T00:57:09.916Z,3.82
2019-03-20T00:59:39.191Z,3.79
2019-03-20T01:02:08.464Z,3.78
2019-03-20T01:04:37.851Z,3.79
2019-03-20T01:07:07.120Z,3.82
2019-03-20T01:09:55.302Z,3.82
2019-03-20T01:12:24.604Z,3.80
2019-03-20T01:14:53.893Z,3.81
2019-03-20T01:17:23.174Z,3.79
2019-03-20T01:19:52.475Z,3.80
2019-03-20T01:22:21.756Z,3.79
2019-03-20T01:24:51.049Z,3.78
2019-03-20T01:27:20.340Z,3.78
2019-03-20T01:29:49.609Z,3.82
2019-03-20T01:32:18.925Z,3.86
2019-03-20T01:34:48.199Z,3.86
2019-03-20T01:37:17.488Z,3.88
2019-03-20T01:42:42.338Z,3.93
2019-03-20T01:45:11.699Z,3.97
2019-03-20T01:47:40.989Z,4.01
2019-03-20T01:50:10.290Z,4.01
2019-03-20T01:52:39.557Z,4.05
2019-03-20T01:55:27.800Z,4.07
2019-03-20T01:57:57.065Z,4.07
2019-03-20T02:00:26.348Z,4.07
2019-03-20T02:02:55.649Z,4.07
2019-03-20T02:05:35.277Z,4.09
2019-03-20T02:07:56.003Z,4.10
2019-03-20T02:10:25.293Z,4.11
2019-03-20T02:12:54.565Z,4.13
2019-03-20T02:15:23.852Z,4.15
2019-03-20T02:17:53.127Z,4.18
2019-03-20T02:21:01.746Z,4.20
2019-03-20T02:23:31.038Z,4.21
2019-03-20T02:26:00.310Z,4.24
2019-03-20T02:28:29.617Z,4.26
2019-03-20T02:34:07.524Z,4.28
2019-03-20T02:36:36.806Z,4.28
2019-03-20T02:39:07.860Z,4.29
2019-03-20T02:41:37.155Z,4.30
2019-03-20T02:44:06.442Z,4.31
2019-03-20T02:46:35.833Z,4.31
2019-03-20T02:49:05.106Z,4.32
2019-03-20T02:51:34.379Z,4.34
2019-03-20T02:54:03.654Z,4.34
2019-03-20T02:56:32.927Z,4.35
2019-03-20T02:59:02.199Z,4.36
2019-03-20T03:01:31.490Z,4.38
2019-03-20T03:04:00.788Z,4.39
2019-03-20T03:06:30.069Z,4.41
2019-03-20T03:08:59.375Z,4.43
2019-03-20T03:11:28.648Z,4.44
2019-03-20T03:13:57.956Z,4.45
2019-03-20T03:16:27.291Z,4.46
2019-03-20T03:18:56.578Z,4.48
2019-03-20T03:24:00.929Z,4.51
2019-03-20T03:26:30.219Z,4.53
2019-03-20T03:28:59.505Z,4.53
2019-03-20T03:31:28.811Z,4.54
2019-03-20T03:33:58.106Z,4.53
2019-03-20T03:36:27.383Z,4.54
2019-03-20T03:38:56.660Z,4.53
2019-03-20T03:41:25.962Z,4.55
2019-03-20T03:43:55.265Z,4.57
2019-03-20T03:46:24.540Z,4.59
2019-03-20T03:51:28.253Z,4.59
2019-03-20T03:53:57.538Z,4.60
2019-03-20T03:56:26.834Z,4.61
2019-03-20T03:58:56.126Z,4.63
2019-03-20T04:01:25.408Z,4.62
2019-03-20T04:03:54.712Z,4.63
2019-03-20T04:06:34.949Z,4.66
2019-03-20T04:08:54.978Z,4.66
2019-03-20T04:11:24.271Z,4.69
2019-03-20T04:13:53.542Z,4.68
2019-03-20T04:16:22.820Z,4.69
2019-03-20T04:18:52.170Z,4.71
2019-03-20T04:21:21.455Z,4.72
2019-03-20T04:23:50.752Z,4.72
2019-03-20T04:26:20.034Z,4.73
2019-03-20T04:28:49.326Z,4.73
2019-03-20T04:31:18.600Z,4.74
2019-03-20T04:36:22.203Z,4.73
2019-03-20T04:38:51.490Z,4.70
2019-03-20T04:41:20.782Z,4.73
2019-03-20T04:43:50.068Z,4.70
2019-03-20T04:46:19.375Z,4.71
2019-03-20T04:48:48.674Z,4.70
2019-03-20T04:51:17.951Z,4.70
2019-03-20T04:53:47.260Z,4.70
2019-03-20T04:56:16.521Z,4.70
2019-03-20T04:58:45.819Z,4.71
2019-03-20T05:01:15.129Z,4.69
2019-03-20T05:03:44.402Z,4.69
2019-03-20T05:06:13.707Z,4.70
2019-03-20T05:08:42.995Z,4.71
2019-03-20T05:11:12.369Z,4.71
2019-03-20T05:13:41.649Z,4.70
2019-03-20T05:16:10.945Z,4.71
2019-03-20T05:18:40.217Z,4.71
2019-03-20T05:21:09.502Z,4.71
2019-03-20T05:23:38.791Z,4.72
2019-03-20T05:26:08.083Z,4.72
2019-03-20T05:28:37.382Z,4.73
2019-03-20T05:31:06.667Z,4.72
2019-03-20T05:33:35.944Z,4.70
2019-03-20T05:36:05.271Z,4.72
2019-03-20T05:38:34.536Z,4.74
2019-03-20T05:43:39.281Z,4.73
2019-03-20T05:46:08.579Z,4.75
2019-03-20T05:48:37.853Z,4.75
2019-03-20T05:51:07.235Z,4.77
2019-03-20T05:53:36.519Z,4.78
2019-03-20T05:56:05.803Z,4.80
2019-03-20T05:58:35.097Z,4.79
2019-03-20T06:01:06.479Z,4.80
2019-03-20T06:03:35.772Z,4.83
2019-03-20T06:06:05.088Z,4.85
2019-03-20T06:08:34.371Z,4.87
2019-03-20T06:11:03.685Z,4.88
2019-03-20T06:13:33.082Z,4.88
2019-03-20T06:16:02.531Z,4.91
2019-03-20T06:18:31.808Z,4.93
2019-03-20T06:21:01.147Z,4.95
2019-03-20T06:23:30.418Z,4.95
2019-03-20T06:25:59.703Z,4.96
2019-03-20T06:28:29.040Z,4.97
2019-03-20T06:30:58.411Z,4.99
2019-03-20T06:33:27.790Z,5.01
2019-03-20T06:36:05.396Z,5.01
2019-03-20T06:41:29.743Z,5.04
2019-03-20T06:43:59.013Z,5.06
2019-03-20T06:46:28.320Z,5.06
2019-03-20T06:48:57.666Z,5.08
2019-03-20T06:51:27.090Z,5.09
2019-03-20T06:53:56.575Z,5.10
2019-03-20T06:56:28.099Z,5.12
2019-03-20T06:59:35.512Z,5.13
2019-03-20T07:02:44.230Z,5.15
2019-03-20T07:05:48.560Z,5.18
2019-03-20T07:08:57.210Z,5.21
2019-03-20T07:11:24.777Z,5.24
2019-03-20T07:13:54.073Z,5.26
2019-03-20T07:16:23.373Z,5.27
2019-03-20T07:18:52.667Z,5.28
2019-03-20T07:21:21.943Z,5.30
2019-03-20T07:23:51.247Z,5.32
2019-03-20T07:26:20.546Z,5.34
2019-03-20T07:28:49.860Z,5.39
2019-03-20T07:33:56.364Z,5.48
2019-03-20T07:39:00.879Z,5.53
2019-03-20T07:41:30.181Z,5.58
2019-03-20T07:43:59.471Z,5.60
2019-03-20T07:46:28.779Z,5.63
2019-03-20T07:48:58.067Z,5.64
2019-03-20T07:51:27.390Z,5.64
2019-03-20T07:53:56.704Z,5.67
2019-03-20T07:56:26.010Z,5.68
2019-03-20T07:58:55.312Z,5.69
2019-03-20T08:01:24.631Z,5.74
2019-03-20T08:03:53.931Z,5.74
2019-03-20T08:06:23.227Z,5.79
2019-03-20T08:08:52.538Z,5.80
2019-03-20T08:11:21.831Z,5.83
2019-03-20T08:13:51.122Z,5.89
2019-03-20T08:16:20.451Z,5.89
2019-03-20T08:19:29.071Z,5.93
2019-03-20T08:21:58.375Z,5.96
2019-03-20T08:24:27.682Z,6.00
2019-03-20T08:26:56.955Z,6.07
2019-03-20T08:29:26.242Z,6.13
2019-03-20T08:31:55.542Z,6.15
2019-03-20T08:34:24.836Z,6.19
2019-03-20T08:36:54.147Z,6.23
2019-03-20T08:39:23.420Z,6.29
2019-03-20T08:41:52.714Z,6.33
2019-03-20T08:44:22.041Z,6.39
2019-03-20T08:46:51.329Z,6.44
2019-03-20T08:49:20.628Z,6.52
2019-03-20T08:51:49.922Z,6.57
2019-03-20T08:54:19.229Z,6.60
2019-03-20T08:56:48.566Z,6.69
2019-03-20T08:59:18.222Z,6.73
2019-03-20T09:01:48.878Z,6.78
2019-03-20T09:04:18.180Z,6.82
2019-03-20T09:06:47.519Z,6.99
2019-03-20T09:09:16.809Z,7.06
2019-03-20T09:11:46.165Z,7.17
2019-03-20T09:14:15.454Z,7.22
2019-03-20T09:16:44.778Z,7.20
2019-03-20T09:19:14.055Z,7.20
2019-03-20T09:21:43.401Z,7.22
2019-03-20T09:24:12.658Z,7.24
2019-03-20T09:26:41.942Z,7.28
2019-03-20T09:29:18.600Z,7.34
2019-03-20T09:31:42.302Z,7.37
2019-03-20T09:34:11.614Z,7.37
2019-03-20T09:36:43.404Z,7.40
2019-03-20T09:39:11.934Z,7.40
2019-03-20T09:41:41.272Z,7.40
2019-03-20T09:44:10.573Z,7.42
2019-03-20T09:46:39.866Z,7.47
2019-03-20T09:49:09.146Z,7.46
2019-03-20T09:51:38.440Z,7.48
2019-03-20T09:54:07.756Z,7.49
2019-03-20T09:56:37.104Z,7.52
2019-03-20T09:59:26.848Z,7.56
2019-03-20T10:01:56.200Z,7.62
2019-03-20T10:04:25.496Z,7.63
2019-03-20T10:06:54.925Z,7.71
2019-03-20T10:09:24.249Z,7.76
2019-03-20T10:11:53.551Z,7.78
2019-03-20T10:14:22.863Z,7.89
2019-03-20T10:16:52.196Z,7.93
2019-03-20T10:19:21.503Z,7.94
2019-03-20T10:21:50.803Z,7.97
2019-03-20T10:24:20.105Z,8.09
2019-03-20T10:27:08.489Z,8.18
2019-03-20T10:29:37.825Z,8.19
2019-03-20T10:32:07.105Z,8.26
2019-03-20T10:34:39.704Z,8.36
2019-03-20T10:39:40.985Z,8.53
2019-03-20T10:42:10.278Z,8.61
2019-03-20T10:44:39.575Z,8.71
2019-03-20T10:47:11.535Z,8.77
2019-03-20T10:49:39.960Z,8.84
2019-03-20T10:52:09.334Z,8.94
2019-03-20T10:54:38.625Z,8.94
2019-03-20T10:57:07.911Z,8.93
2019-03-20T10:59:56.121Z,9.01
2019-03-20T11:02:25.424Z,9.07
2019-03-20T11:04:54.727Z,9.14
2019-03-20T11:07:24.043Z,9.16
2019-03-20T11:09:53.333Z,9.15
2019-03-20T11:12:22.837Z,9.05
2019-03-20T11:14:52.122Z,9.14
2019-03-20T11:17:21.465Z,9.21
2019-03-20T11:19:50.804Z,9.24
2019-03-20T11:22:20.085Z,9.15
2019-03-20T11:24:49.414Z,9.26
2019-03-20T11:27:18.734Z,9.39
2019-03-20T11:29:48.093Z,9.39
2019-03-20T11:32:17.363Z,9.31
2019-03-20T11:34:46.661Z,9.34
2019-03-20T11:37:15.932Z,9.39
2019-03-20T11:40:04.132Z,9.42
2019-03-20T11:42:33.427Z,9.43
2019-03-20T11:45:02.701Z,9.37
2019-03-20T11:47:32.003Z,9.33
2019-03-20T11:50:01.291Z,9.27
2019-03-20T11:52:30.563Z,9.27
2019-03-20T11:54:59.849Z,9.24
2019-03-20T11:57:29.144Z,9.23
2019-03-20T11:59:58.471Z,9.30
2019-03-20T12:02:28.657Z,9.27
2019-03-20T12:04:58.731Z,9.36
2019-03-20T12:07:28.027Z,9.40
2019-03-20T12:09:58.903Z,9.41
2019-03-20T12:12:28.370Z,9.27
2019-03-20T12:14:57.726Z,9.23
2019-03-20T12:17:27.002Z,9.28
2019-03-20T12:19:56.318Z,9.27
2019-03-20T12:22:25.642Z,9.23
2019-03-20T12:24:54.921Z,9.35
2019-03-20T12:27:24.200Z,9.24
2019-03-20T12:29:53.649Z,9.14
2019-03-20T12:32:22.925Z,9.14
2019-03-20T12:34:52.249Z,9.09
2019-03-20T12:37:21.546Z,9.07
2019-03-20T12:39:53.329Z,9.13
2019-03-20T12:42:21.834Z,9.08
2019-03-20T12:44:51.101Z,9.06
2019-03-20T12:47:20.389Z,9.01
2019-03-20T12:49:49.659Z,9.13
2019-03-20T12:52:18.934Z,9.24
2019-03-20T12:54:48.216Z,9.23
2019-03-20T12:57:17.501Z,9.20
2019-03-20T12:59:46.791Z,9.28
2019-03-20T13:02:16.079Z,9.30
2019-03-20T13:04:45.401Z,9.31
2019-03-20T13:07:14.687Z,9.36
2019-03-20T13:09:43.991Z,9.40
2019-03-20T13:12:13.270Z,9.23
2019-03-20T13:14:42.600Z,9.13
2019-03-20T13:17:11.891Z,9.17
2019-03-20T13:19:41.265Z,9.30
2019-03-20T13:22:10.600Z,9.29
2019-03-20T13:24:39.874Z,9.29
2019-03-20T13:27:09.236Z,9.31
2019-03-20T13:29:38.533Z,9.44
2019-03-20T13:32:07.810Z,9.42
2019-03-20T13:34:37.105Z,9.46
2019-03-20T13:37:06.386Z,9.42
2019-03-20T13:39:35.701Z,9.49
2019-03-20T13:42:04.944Z,9.45
2019-03-20T13:44:34.206Z,9.52
2019-03-20T13:47:03.485Z,9.56
2019-03-20T13:49:32.775Z,9.58
2019-03-20T13:52:02.050Z,9.61
2019-03-20T13:54:31.317Z,9.58
2019-03-20T13:57:00.609Z,9.50
2019-03-20T13:59:29.877Z,9.45
2019-03-20T14:01:59.225Z,9.50
2019-03-20T14:04:28.579Z,9.51
2019-03-20T14:06:57.862Z,9.55
2019-03-20T14:09:27.139Z,9.66
2019-03-20T14:11:56.440Z,9.69
2019-03-20T14:14:25.698Z,9.74
2019-03-20T14:16:54.976Z,9.84
2019-03-20T14:19:24.278Z,9.86
2019-03-20T14:21:53.559Z,9.83
2019-03-20T14:24:22.822Z,9.85
2019-03-20T14:26:52.114Z,9.87
2019-03-20T14:29:21.382Z,9.96
2019-03-20T14:34:39.023Z,9.91
2019-03-20T14:37:08.302Z,9.93
2019-03-20T14:39:37.624Z,10.01
2019-03-20T14:42:06.899Z,9.97
2019-03-20T14:44:36.203Z,9.87
2019-03-20T14:47:05.584Z,9.85
2019-03-20T14:49:34.886Z,9.90
2019-03-20T14:52:04.388Z,9.81
2019-03-20T14:54:33.472Z,9.83
2019-03-20T14:57:02.802Z,9.78
2019-03-20T15:00:11.457Z,9.71
2019-03-20T15:02:40.743Z,9.70
2019-03-20T15:05:10.758Z,9.67
2019-03-20T15:07:40.938Z,9.62
2019-03-20T15:10:14.946Z,9.51
2019-03-20T15:12:45.115Z,9.45
2019-03-20T15:15:35.183Z,9.36
2019-03-20T15:18:05.359Z,9.34
2019-03-20T15:20:35.379Z,9.23
2019-03-20T15:23:05.304Z,9.17
2019-03-20T15:25:34.676Z,9.06
2019-03-20T15:31:12.576Z,9.07
2019-03-20T15:33:42.535Z,9.12
2019-03-20T15:36:11.908Z,9.11
2019-03-20T15:38:41.228Z,9.02
2019-03-20T15:41:10.889Z,9.02
2019-03-20T15:43:40.187Z,9.00
2019-03-20T15:46:09.544Z,8.87
2019-03-20T15:48:38.925Z,8.94
2019-03-20T15:51:08.295Z,8.94
2019-03-20T15:53:37.640Z,8.88
2019-03-20T15:56:26.040Z,8.75
2019-03-20T15:58:55.323Z,8.75
2019-03-20T16:01:24.610Z,8.69
2019-03-20T16:03:53.900Z,8.65
2019-03-20T16:06:23.211Z,8.65
2019-03-20T16:08:54.949Z,8.61
2019-03-20T16:11:23.537Z,8.61
2019-03-20T16:13:53.407Z,8.50
2019-03-20T16:16:22.691Z,8.46
2019-03-20T16:18:51.982Z,8.43
2019-03-20T16:21:21.296Z,8.43
2019-03-20T16:23:50.624Z,8.41
2019-03-20T16:26:19.948Z,8.30
2019-03-20T16:28:49.238Z,8.28
2019-03-20T16:31:18.732Z,8.23
2019-03-20T16:33:48.052Z,8.25
2019-03-20T16:36:17.348Z,8.20
2019-03-20T16:39:07.310Z,8.15
2019-03-20T16:41:36.609Z,8.15
2019-03-20T16:44:06.004Z,8.06
2019-03-20T16:46:35.286Z,8.03
2019-03-20T16:49:43.902Z,7.95
2019-03-20T16:52:13.249Z,7.96
2019-03-20T16:54:42.522Z,7.91
2019-03-20T16:57:11.815Z,7.89
2019-03-20T16:59:41.083Z,7.81
2019-03-20T17:02:10.403Z,7.78
2019-03-20T17:04:39.705Z,7.72
2019-03-20T17:07:28.044Z,7.62
2019-03-20T17:10:16.219Z,7.58
2019-03-20T17:12:45.543Z,7.58
2019-03-20T17:15:17.735Z,7.55
2019-03-20T17:17:47.109Z,7.52
2019-03-20T17:20:57.857Z,7.45
2019-03-20T17:23:26.691Z,7.39
2019-03-20T17:25:55.974Z,7.29
2019-03-20T17:28:25.328Z,7.25
2019-03-20T17:30:54.648Z,7.19
2019-03-20T17:33:23.946Z,7.16
2019-03-20T17:36:12.233Z,7.14
2019-03-20T17:38:41.522Z,7.09
2019-03-20T17:41:10.845Z,7.07
2019-03-20T17:43:40.194Z,7.04
2019-03-20T17:46:09.676Z,7.01
2019-03-20T17:48:39.051Z,7.00
2019-03-20T17:51:08.321Z,6.98
2019-03-20T17:53:37.736Z,6.95
2019-03-20T17:56:07.059Z,6.99
2019-03-20T17:58:36.389Z,6.96
2019-03-20T18:01:45.046Z,6.97
2019-03-20T18:04:14.342Z,6.93
2019-03-20T18:06:43.623Z,6.92
2019-03-20T18:09:12.945Z,6.91
2019-03-20T18:11:47.431Z,6.91
2019-03-20T18:14:13.374Z,6.93
2019-03-20T18:16:42.671Z,6.92
2019-03-20T18:19:12.002Z,6.92
2019-03-20T18:21:41.357Z,6.92
2019-03-20T18:24:10.666Z,6.90
2019-03-20T18:26:39.970Z,6.90
2019-03-20T18:29:09.305Z,6.88
2019-03-20T18:31:46.038Z,6.88
2019-03-20T18:34:09.643Z,6.89
2019-03-20T18:36:38.971Z,6.89
2019-03-20T18:42:22.735Z,6.89
2019-03-20T18:44:52.039Z,6.85
2019-03-20T18:47:21.358Z,6.83
2019-03-20T18:49:50.793Z,6.83
2019-03-20T18:52:20.112Z,6.83
2019-03-20T18:54:49.535Z,6.82
2019-03-20T18:57:18.795Z,6.81
2019-03-20T18:59:48.114Z,6.80
2019-03-20T19:02:17.446Z,6.80
2019-03-20T19:04:46.744Z,6.81
2019-03-20T19:07:16.135Z,6.77
2019-03-20T19:09:45.540Z,6.79
2019-03-20T19:12:15.308Z,6.78
2019-03-20T19:14:44.768Z,6.80
2019-03-20T19:17:14.093Z,6.80
2019-03-20T19:20:02.504Z,6.79
2019-03-20T19:22:31.781Z,6.76
2019-03-20T19:25:01.237Z,6.76
2019-03-20T19:27:30.569Z,6.78
2019-03-20T19:29:59.894Z,6.79
2019-03-20T19:32:29.212Z,6.79
2019-03-20T19:34:58.656Z,6.80
2019-03-20T19:37:28.024Z,6.83
2019-03-20T19:39:57.338Z,6.83
2019-03-20T19:42:26.715Z,6.85
2019-03-20T19:44:56.015Z,6.84
2019-03-20T19:47:25.421Z,6.85
2019-03-20T19:49:54.746Z,6.83
2019-03-20T19:52:24.045Z,6.81
2019-03-20T19:54:53.348Z,6.79
2019-03-20T19:57:22.716Z,6.74
2019-03-20T19:59:52.071Z,6.74
2019-03-20T20:02:21.383Z,6.72
2019-03-20T20:04:50.714Z,6.73
2019-03-20T20:07:19.997Z,6.73
2019-03-20T20:09:49.324Z,6.71
2019-03-20T20:12:19.202Z,6.73
2019-03-20T20:14:49.695Z,6.73
2019-03-20T20:17:18.999Z,6.72
2019-03-20T20:19:48.308Z,6.71
2019-03-20T20:22:17.623Z,6.66
2019-03-20T20:24:46.930Z,6.64
2019-03-20T20:30:04.825Z,6.59
2019-03-20T20:32:34.112Z,6.53
2019-03-20T20:35:22.332Z,6.54
2019-03-20T20:37:51.640Z,6.52
2019-03-20T20:40:20.940Z,6.51
2019-03-20T20:42:50.331Z,6.52
2019-03-20T20:45:19.630Z,6.51
2019-03-20T20:47:48.935Z,6.52
2019-03-20T20:50:57.612Z,6.52
2019-03-20T20:53:26.942Z,6.47
2019-03-20T20:55:56.299Z,6.48
2019-03-20T20:58:25.663Z,6.48
2019-03-20T21:00:55.040Z,6.50
2019-03-20T21:03:24.352Z,6.51
2019-03-20T21:05:53.714Z,6.51
2019-03-20T21:08:23.022Z,6.52
2019-03-20T21:10:52.396Z,6.52
2019-03-20T21:13:40.738Z,6.50
2019-03-20T21:16:10.561Z,6.47
2019-03-20T21:19:18.194Z,6.45
2019-03-20T21:22:21.705Z,6.43
2019-03-20T21:24:51.557Z,6.39
2019-03-20T21:27:58.867Z,6.37
2019-03-20T21:31:06.213Z,6.36
2019-03-20T21:34:13.561Z,6.34
2019-03-20T21:37:20.862Z,6.33
2019-03-20T21:40:09.389Z,6.31
2019-03-20T21:43:07.199Z,6.30
2019-03-20T21:46:00.470Z,6.31
2019-03-20T21:48:30.306Z,6.31
2019-03-20T21:54:34.375Z,6.33
2019-03-20T21:57:41.706Z,6.34
2019-03-20T22:00:36.135Z,6.36
2019-03-20T22:03:05.973Z,6.35
2019-03-20T22:06:13.264Z,6.33
2019-03-20T22:08:43.164Z,6.32
2019-03-20T22:11:50.470Z,6.33
2019-03-20T22:14:20.284Z,6.35
2019-03-20T22:17:27.594Z,6.32
2019-03-20T22:20:19.403Z,6.35
2019-03-20T22:23:26.711Z,6.36
2019-03-20T22:26:34.000Z,6.34
2019-03-20T22:29:29.474Z,6.35
2019-03-20T22:32:36.768Z,6.39
2019-03-20T22:35:44.120Z,6.38
2019-03-20T22:38:51.415Z,6.38
2019-03-20T22:41:58.720Z,6.40
2019-03-20T22:44:28.606Z,6.39
2019-03-20T22:47:35.914Z,6.39
2019-03-20T22:50:43.210Z,6.42
2019-03-20T22:53:50.520Z,6.44
2019-03-20T22:56:42.739Z,6.45
2019-03-20T22:59:23.656Z,6.47
2019-03-20T23:05:10.140Z,6.52
2019-03-20T23:07:39.959Z,6.51
2019-03-20T23:10:12.485Z,6.50
2019-03-20T23:12:42.295Z,6.51
2019-03-20T23:15:14.584Z,6.53
2019-03-20T23:17:44.390Z,6.54
2019-03-20T23:20:17.022Z,6.55
2019-03-20T23:22:46.858Z,6.55
2019-03-20T23:25:16.674Z,6.56
2019-03-20T23:27:46.495Z,6.54
2019-03-20T23:30:19.378Z,6.55
2019-03-20T23:32:49.207Z,6.53
2019-03-20T23:35:19.031Z,6.53
2019-03-20T23:37:48.854Z,6.52
2019-03-20T23:40:18.675Z,6.52
2019-03-20T23:42:48.630Z,6.52
2019-03-20T23:45:19.043Z,6.53
2019-03-20T23:48:10.100Z,6.54
2019-03-20T23:50:39.944Z,6.55
2019-03-20T23:53:09.778Z,6.58
2019-03-20T23:55:39.596Z,6.59
2019-03-20T23:58:09.416Z,6.62
